createdAt,value
2023-12-23T00:01:01.407Z,94890.41
2023-12-23T00:03:27.937Z,94893.06
2023-12-23T00:05:54.605Z,94908.84
2023-12-23T00:08:21.274Z,94908.09
2023-12-23T00:10:47.888Z,94922.81
2023-12-23T00:13:14.355Z,94909.25
2023-12-23T00:15:40.951Z,94889.63
2023-12-23T00:18:07.663Z,94882.47
2023-12-23T00:20:34.501Z,94890.78
2023-12-23T00:23:01.129Z,94905.81
2023-12-23T00:25:27.691Z,94895.31
2023-12-23T00:27:54.178Z,94901.31
2023-12-23T00:30:20.750Z,94887.00
2023-12-23T00:32:47.760Z,94902.81
2023-12-23T00:35:14.531Z,94913.75
2023-12-23T00:37:41.115Z,94899.84
2023-12-23T00:40:08.418Z,94891.56
2023-12-23T00:42:34.949Z,94888.53
2023-12-23T00:45:01.774Z,94901.34
2023-12-23T00:47:32.199Z,94897.94
2023-12-23T00:50:00.904Z,94872.31
2023-12-23T00:52:28.619Z,94915.66
2023-12-23T00:54:55.946Z,94913.72
2023-12-23T00:57:22.524Z,94910.75
2023-12-23T00:59:49.015Z,94931.09
2023-12-23T01:02:16.140Z,94923.19
2023-12-23T01:04:42.667Z,94934.50
2023-12-23T01:07:09.210Z,94938.28
2023-12-23T01:09:35.719Z,94927.72
2023-12-23T01:12:03.466Z,94918.66
2023-12-23T01:14:30.024Z,94933.00
2023-12-23T01:16:56.560Z,94947.25
2023-12-23T01:19:23.578Z,94954.06
2023-12-23T01:21:50.265Z,94951.81
2023-12-23T01:24:16.720Z,94951.81
2023-12-23T01:26:43.269Z,94960.88
2023-12-23T01:29:09.812Z,94942.72
2023-12-23T01:31:36.422Z,94989.50
2023-12-23T01:34:02.941Z,94996.31
2023-12-23T01:36:29.410Z,94986.91
2023-12-23T01:38:55.885Z,94990.66
2023-12-23T01:41:22.665Z,94997.81
2023-12-23T01:43:49.285Z,94997.81
2023-12-23T01:46:15.880Z,95011.38
2023-12-23T01:48:45.439Z,95012.50
2023-12-23T01:51:13.260Z,95005.69
2023-12-23T01:53:41.100Z,95030.22
2023-12-23T01:56:08.670Z,95034.34
2023-12-23T01:58:35.929Z,95051.59
2023-12-23T02:01:02.605Z,95042.91
2023-12-23T02:03:29.877Z,95047.41
2023-12-23T02:05:56.776Z,95050.44
2023-12-23T02:08:23.587Z,95070.38
2023-12-23T02:10:58.900Z,95055.56
2023-12-23T02:13:28.011Z,95092.38
2023-12-23T02:15:55.436Z,95074.31
2023-12-23T02:18:24.000Z,95063.94
2023-12-23T02:20:52.676Z,95070.31
2023-12-23T02:23:19.582Z,95100.84
2023-12-23T02:25:52.696Z,95092.50
2023-12-23T02:28:20.306Z,95069.22
2023-12-23T02:30:48.708Z,95098.63
2023-12-23T02:33:15.534Z,95097.06
2023-12-23T02:35:42.114Z,95103.84
2023-12-23T02:38:09.338Z,95105.38
2023-12-23T02:40:36.471Z,95091.13
2023-12-23T02:43:03.194Z,95102.78
2023-12-23T02:45:29.745Z,95085.44
2023-12-23T02:47:56.359Z,95094.88
2023-12-23T02:50:23.177Z,95097.47
2023-12-23T02:52:49.990Z,95123.78
2023-12-23T02:55:19.519Z,95103.06
2023-12-23T02:57:46.047Z,95130.22
2023-12-23T03:00:13.636Z,95124.97
2023-12-23T03:02:40.105Z,95129.34
2023-12-23T03:05:07.319Z,95143.31
2023-12-23T03:07:33.912Z,95116.59
2023-12-23T03:10:00.381Z,95137.34
2023-12-23T03:12:26.836Z,95132.13
2023-12-23T03:14:53.442Z,95127.16
2023-12-23T03:17:20.133Z,95140.44
2023-12-23T03:19:46.731Z,95151.59
2023-12-23T03:22:13.276Z,95181.88
2023-12-23T03:24:39.746Z,95168.34
2023-12-23T03:27:06.208Z,95176.94
2023-12-23T03:29:32.684Z,95200.31
2023-12-23T03:31:59.136Z,95188.53
2023-12-23T03:34:25.633Z,95242.50
2023-12-23T03:36:52.697Z,95272.50
2023-12-23T03:39:19.225Z,95303.16
2023-12-23T03:41:45.738Z,95306.06
2023-12-23T03:44:12.286Z,95299.59
2023-12-23T03:46:38.790Z,95305.69
2023-12-23T03:49:05.331Z,95338.59
2023-12-23T03:51:31.798Z,95312.97
2023-12-23T03:53:58.489Z,95311.81
2023-12-23T03:56:24.968Z,95321.53
2023-12-23T03:58:51.497Z,95328.50
2023-12-23T04:01:19.132Z,95318.38
2023-12-23T04:03:46.750Z,95335.38
2023-12-23T04:06:13.592Z,95348.66
2023-12-23T04:08:40.657Z,95339.00
2023-12-23T04:11:07.180Z,95354.75
2023-12-23T04:13:33.712Z,95331.38
2023-12-23T04:16:03.609Z,95336.09
2023-12-23T04:18:30.208Z,95331.97
2023-12-23T04:20:56.742Z,95335.44
2023-12-23T04:23:23.486Z,95339.25
2023-12-23T04:25:50.212Z,95343.94
2023-12-23T04:28:18.578Z,95349.78
2023-12-23T04:30:45.225Z,95356.13
2023-12-23T04:33:11.921Z,95353.31
2023-12-23T04:35:38.452Z,95367.66
2023-12-23T04:38:04.978Z,95383.56
2023-12-23T04:40:31.608Z,95379.34
2023-12-23T04:42:58.106Z,95379.69
2023-12-23T04:45:24.567Z,95379.31
2023-12-23T04:47:51.107Z,95373.84
2023-12-23T04:50:17.861Z,95376.91
2023-12-23T04:52:44.438Z,95373.06
2023-12-23T04:55:11.263Z,95361.16
2023-12-23T04:57:38.392Z,95361.94
2023-12-23T05:00:07.133Z,95365.66
2023-12-23T05:02:34.619Z,95360.75
2023-12-23T05:05:01.423Z,95369.59
2023-12-23T05:07:27.946Z,95361.81
2023-12-23T05:09:54.415Z,95355.69
2023-12-23T05:12:23.467Z,95361.34
2023-12-23T05:14:51.406Z,95353.84
2023-12-23T05:17:18.669Z,95351.81
2023-12-23T05:19:45.542Z,95342.91
2023-12-23T05:22:12.014Z,95331.44
2023-12-23T05:24:38.859Z,95332.44
2023-12-23T05:27:06.270Z,95320.94
2023-12-23T05:29:32.958Z,95318.03
2023-12-23T05:31:59.486Z,95323.16
2023-12-23T05:34:26.069Z,95321.38
2023-12-23T05:36:52.559Z,95311.25
2023-12-23T05:39:19.050Z,95300.28
2023-12-23T05:41:45.607Z,95300.56
2023-12-23T05:44:12.129Z,95296.34
2023-12-23T05:46:38.647Z,95279.75
2023-12-23T05:49:05.301Z,95300.34
2023-12-23T05:51:31.800Z,95289.94
2023-12-23T05:53:58.298Z,95281.44
2023-12-23T05:56:24.789Z,95279.03
2023-12-23T05:58:51.956Z,95281.22
2023-12-23T06:01:18.701Z,95255.28
2023-12-23T06:03:45.276Z,95266.19
2023-12-23T06:06:11.782Z,95254.63
2023-12-23T06:08:38.513Z,95253.25
2023-12-23T06:11:06.000Z,95274.75
2023-12-23T06:13:32.858Z,95247.50
2023-12-23T06:15:59.474Z,95257.72
2023-12-23T06:18:26.243Z,95264.28
2023-12-23T06:20:52.781Z,95271.28
2023-12-23T06:23:19.228Z,95257.38
2023-12-23T06:25:45.789Z,95269.09
2023-12-23T06:28:12.321Z,95253.31
2023-12-23T06:30:38.945Z,95284.03
2023-12-23T06:33:05.694Z,95265.25
2023-12-23T06:35:32.347Z,95260.97
2023-12-23T06:37:58.886Z,95270.03
2023-12-23T06:40:25.423Z,95254.72
2023-12-23T06:42:52.032Z,95263.75
2023-12-23T06:45:18.934Z,95263.28
2023-12-23T06:47:45.470Z,95268.22
2023-12-23T06:50:12.221Z,95302.91
2023-12-23T06:52:38.887Z,95290.06
2023-12-23T06:55:05.776Z,95277.22
2023-12-23T06:57:32.291Z,95277.78
2023-12-23T06:59:59.964Z,95283.53
2023-12-23T07:02:27.411Z,95274.41
2023-12-23T07:04:54.051Z,95276.16
2023-12-23T07:07:20.561Z,95276.72
2023-12-23T07:09:50.436Z,95283.47
2023-12-23T07:12:19.022Z,95298.84
2023-12-23T07:14:45.874Z,95290.75
2023-12-23T07:17:12.466Z,95306.38
2023-12-23T07:19:38.999Z,95310.34
2023-12-23T07:22:05.452Z,95300.84
2023-12-23T07:24:31.931Z,95316.88
2023-12-23T07:26:59.174Z,95309.84
2023-12-23T07:29:26.500Z,95308.94
2023-12-23T07:31:53.139Z,95314.69
2023-12-23T07:34:19.652Z,95290.78
2023-12-23T07:36:46.168Z,95306.16
2023-12-23T07:39:12.726Z,95320.56
2023-12-23T07:41:39.202Z,95318.31
2023-12-23T07:44:05.791Z,95321.47
2023-12-23T07:46:32.316Z,95321.84
2023-12-23T07:48:58.849Z,95323.28
2023-12-23T07:51:25.384Z,95311.47
2023-12-23T07:53:52.327Z,95322.06
2023-12-23T07:56:19.097Z,95323.19
2023-12-23T07:58:45.708Z,95310.19
2023-12-23T08:01:12.229Z,95309.97
2023-12-23T08:03:39.119Z,95316.03
2023-12-23T08:06:06.048Z,95327.03
2023-12-23T08:08:32.587Z,95316.13
2023-12-23T08:10:59.502Z,95325.44
2023-12-23T08:13:27.801Z,95305.50
2023-12-23T08:15:54.293Z,95300.13
2023-12-23T08:18:21.348Z,95294.03
2023-12-23T08:20:48.266Z,95278.47
2023-12-23T08:23:14.808Z,95294.44
2023-12-23T08:25:41.403Z,95295.38
2023-12-23T08:28:08.306Z,95291.69
2023-12-23T08:30:34.905Z,95279.72
2023-12-23T08:33:02.129Z,95275.91
2023-12-23T08:35:28.850Z,95295.88
2023-12-23T08:37:55.583Z,95280.06
2023-12-23T08:40:22.172Z,95278.44
2023-12-23T08:42:48.871Z,95270.31
2023-12-23T08:45:15.723Z,95293.63
2023-12-23T08:47:42.331Z,95282.81
2023-12-23T08:50:09.657Z,95276.09
2023-12-23T08:52:36.510Z,95276.31
2023-12-23T08:55:03.451Z,95279.53
2023-12-23T08:57:30.069Z,95282.03
2023-12-23T08:59:56.631Z,95285.41
2023-12-23T09:02:26.030Z,95271.97
2023-12-23T09:04:54.129Z,95246.41
2023-12-23T09:07:20.767Z,95237.28
2023-12-23T09:09:47.358Z,95250.69
2023-12-23T09:12:13.877Z,95265.06
2023-12-23T09:14:40.389Z,95249.84
2023-12-23T09:17:07.505Z,95240.81
2023-12-23T09:19:34.221Z,95235.13
2023-12-23T09:22:01.167Z,95240.44
2023-12-23T09:24:27.696Z,95235.34
2023-12-23T09:26:54.185Z,95249.59
2023-12-23T09:29:20.883Z,95245.16
2023-12-23T09:31:47.487Z,95243.34
2023-12-23T09:34:14.162Z,95252.94
2023-12-23T09:36:40.653Z,95240.19
2023-12-23T09:39:07.140Z,95277.44
2023-12-23T09:41:34.019Z,95238.28
2023-12-23T09:44:01.352Z,95250.94
2023-12-23T09:46:28.180Z,95236.09
2023-12-23T09:48:54.809Z,95267.91
2023-12-23T09:51:26.594Z,95252.53
2023-12-23T09:54:01.272Z,95265.16
2023-12-23T09:56:29.632Z,95240.66
2023-12-23T09:58:56.672Z,95260.44
2023-12-23T10:01:24.156Z,95253.59
2023-12-23T10:03:51.881Z,95253.81
2023-12-23T10:06:22.424Z,95251.31
2023-12-23T10:08:50.753Z,95261.91
2023-12-23T10:11:17.421Z,95255.72
2023-12-23T10:13:44.257Z,95262.22
2023-12-23T10:16:11.001Z,95243.13
2023-12-23T10:18:40.041Z,95241.38
2023-12-23T10:21:06.625Z,95252.09
2023-12-23T10:23:36.235Z,95275.50
2023-12-23T10:26:03.972Z,95239.53
2023-12-23T10:40:29.325Z,95239.06
2023-12-23T10:45:54.402Z,95252.09
2023-12-23T10:48:51.259Z,95242.91
2023-12-23T10:51:39.927Z,95211.56
2023-12-23T10:54:10.191Z,95242.53
2023-12-23T10:56:38.220Z,95237.13
2023-12-23T10:59:05.855Z,95257.53
2023-12-23T11:01:33.569Z,95246.59
2023-12-23T11:04:01.616Z,95242.50
2023-12-23T11:06:36.156Z,95234.03
2023-12-23T11:09:05.331Z,95250.72
2023-12-23T11:11:32.691Z,95238.72
2023-12-23T11:13:59.492Z,95261.53
2023-12-23T11:16:26.121Z,95250.34
2023-12-23T11:18:55.859Z,95209.81
2023-12-23T11:21:22.834Z,95235.84
2023-12-23T11:23:49.394Z,95226.94
2023-12-23T11:26:46.090Z,95232.81
2023-12-23T11:29:15.915Z,95220.31
2023-12-23T11:31:42.896Z,95240.38
2023-12-23T11:34:14.951Z,95245.28
2023-12-23T11:36:43.780Z,95232.81
2023-12-23T11:39:12.376Z,95213.16
2023-12-23T11:41:41.446Z,95236.19
2023-12-23T11:44:08.230Z,95240.06
2023-12-23T11:46:36.492Z,95228.03
2023-12-23T11:49:04.053Z,95223.78
2023-12-23T11:51:31.547Z,95214.44
2023-12-23T11:54:00.067Z,95235.25
2023-12-23T11:56:27.073Z,95226.06
2023-12-23T11:58:54.762Z,95255.56
2023-12-23T12:01:21.327Z,95251.41
2023-12-23T12:03:49.562Z,95264.53
2023-12-23T12:06:16.495Z,95238.72
2023-12-23T12:08:43.293Z,95229.59
2023-12-23T12:11:10.006Z,95251.63
2023-12-23T12:13:37.752Z,95234.31
2023-12-23T12:16:05.183Z,95254.66
2023-12-23T12:18:31.829Z,95239.31
2023-12-23T12:20:59.072Z,95257.81
2023-12-23T12:25:52.879Z,95257.38
2023-12-23T12:28:19.827Z,95251.03
2023-12-23T12:30:47.447Z,95242.97
2023-12-23T12:33:16.184Z,95231.97
2023-12-23T12:35:42.959Z,95237.28
2023-12-23T12:38:17.005Z,95219.59
2023-12-23T12:40:50.471Z,95243.88
2023-12-23T12:43:17.343Z,95242.84
2023-12-23T12:45:43.875Z,95234.16
2023-12-23T12:48:11.812Z,95235.97
2023-12-23T12:50:43.124Z,95261.22
2023-12-23T12:53:09.965Z,95250.16
2023-12-23T12:55:36.848Z,95249.19
2023-12-23T12:58:03.924Z,95239.03
2023-12-23T13:00:30.624Z,95261.97
2023-12-23T13:02:57.412Z,95257.88
2023-12-23T13:05:24.333Z,95279.47
2023-12-23T13:07:53.959Z,95279.00
2023-12-23T13:10:20.755Z,95279.13
2023-12-23T13:12:47.294Z,95263.56
2023-12-23T13:15:13.872Z,95247.09
2023-12-23T13:17:40.699Z,95283.63
2023-12-23T13:20:09.129Z,95283.28
2023-12-23T13:22:35.995Z,95284.78
2023-12-23T13:25:02.566Z,95291.72
2023-12-23T13:27:29.146Z,95306.03
2023-12-23T13:29:55.793Z,95293.41
2023-12-23T13:32:22.356Z,95290.53
2023-12-23T13:34:49.087Z,95287.41
2023-12-23T13:37:16.802Z,95301.72
2023-12-23T13:39:43.399Z,95282.47
2023-12-23T13:42:09.971Z,95300.56
2023-12-23T13:44:37.095Z,95318.69
2023-12-23T13:47:05.286Z,95312.00
2023-12-23T13:49:32.122Z,95318.72
2023-12-23T13:51:58.757Z,95324.00
2023-12-23T13:54:25.371Z,95296.59
2023-12-23T13:56:51.891Z,95319.09
2023-12-23T13:59:18.523Z,95321.84
2023-12-23T14:01:45.133Z,95314.22
2023-12-23T14:04:11.870Z,95324.84
2023-12-23T14:06:38.400Z,95319.75
2023-12-23T14:09:06.238Z,95311.13
2023-12-23T14:11:33.356Z,95346.72
2023-12-23T14:13:59.957Z,95320.75
2023-12-23T14:16:27.371Z,95345.16
2023-12-23T14:18:53.894Z,95346.34
2023-12-23T14:21:20.371Z,95364.84
2023-12-23T14:23:46.911Z,95359.56
2023-12-23T14:26:13.485Z,95372.75
2023-12-23T14:28:40.087Z,95374.28
2023-12-23T14:31:06.792Z,95357.88
2023-12-23T14:33:33.648Z,95388.59
2023-12-23T14:36:00.482Z,95379.22
2023-12-23T14:38:30.048Z,95382.22
2023-12-23T14:40:57.022Z,95386.69
2023-12-23T14:43:23.718Z,95386.13
2023-12-23T14:45:50.662Z,95378.03
2023-12-23T14:48:17.230Z,95399.09
2023-12-23T14:50:43.813Z,95362.75
2023-12-23T14:53:10.414Z,95385.59
2023-12-23T14:55:40.706Z,95416.44
2023-12-23T14:58:08.341Z,95423.75
2023-12-23T15:00:35.232Z,95429.19
2023-12-23T15:03:02.111Z,95419.56
2023-12-23T15:05:29.035Z,95436.97
2023-12-23T15:07:55.714Z,95431.00
2023-12-23T15:10:22.264Z,95431.31
2023-12-23T15:12:49.032Z,95410.72
2023-12-23T15:15:15.721Z,95422.63
2023-12-23T15:17:42.292Z,95434.09
2023-12-23T15:20:09.576Z,95442.22
2023-12-23T15:22:36.275Z,95451.50
2023-12-23T15:25:02.913Z,95446.03
2023-12-23T15:27:29.533Z,95446.31
2023-12-23T15:29:56.789Z,95451.47
2023-12-23T15:32:24.097Z,95466.97
2023-12-23T15:34:51.001Z,95460.28
2023-12-23T15:37:17.639Z,95485.56
2023-12-23T15:39:44.222Z,95467.78
2023-12-23T15:42:10.780Z,95461.03
2023-12-23T15:44:37.533Z,95488.06
2023-12-23T15:47:04.395Z,95465.13
2023-12-23T15:49:32.582Z,95490.00
2023-12-23T15:52:00.310Z,95490.44
2023-12-23T15:54:26.950Z,95494.56
2023-12-23T15:56:53.970Z,95493.28
2023-12-23T15:59:20.537Z,95500.16
2023-12-23T16:01:47.196Z,95512.59
2023-12-23T16:04:13.713Z,95528.13
2023-12-23T16:06:41.375Z,95532.34
2023-12-23T16:09:08.320Z,95529.75
2023-12-23T16:11:38.044Z,95536.59
2023-12-23T16:14:05.371Z,95545.69
2023-12-23T16:16:32.168Z,95528.31
2023-12-23T16:18:58.880Z,95523.78
2023-12-23T16:21:25.671Z,95532.50
2023-12-23T16:23:52.205Z,95533.75
2023-12-23T16:26:19.257Z,95532.72
2023-12-23T16:28:46.464Z,95534.88
2023-12-23T16:31:13.886Z,95514.47
2023-12-23T16:33:40.795Z,95533.28
2023-12-23T16:36:15.071Z,95532.34
2023-12-23T16:38:42.697Z,95548.44
2023-12-23T16:41:13.511Z,95534.50
2023-12-23T16:43:40.776Z,95549.84
2023-12-23T16:46:08.815Z,95547.91
2023-12-23T16:48:35.731Z,95549.28
2023-12-23T16:51:02.462Z,95544.38
2023-12-23T16:53:29.125Z,95563.31
2023-12-23T16:55:55.715Z,95568.59
2023-12-23T16:58:22.415Z,95572.81
2023-12-23T17:00:48.965Z,95554.84
2023-12-23T17:03:17.907Z,95582.34
2023-12-23T17:05:45.125Z,95587.44
2023-12-23T17:08:11.921Z,95571.06
2023-12-23T17:10:38.613Z,95596.53
2023-12-23T17:13:05.265Z,95593.34
2023-12-23T17:15:31.916Z,95606.38
2023-12-23T17:17:59.188Z,95600.00
2023-12-23T17:20:25.921Z,95605.19
2023-12-23T17:22:55.618Z,95610.66
2023-12-23T17:25:22.641Z,95586.91
2023-12-23T17:27:49.214Z,95612.47
2023-12-23T17:30:15.929Z,95609.88
2023-12-23T17:32:42.855Z,95600.63
2023-12-23T17:35:10.838Z,95607.41
2023-12-23T17:37:37.566Z,95639.56
2023-12-23T17:40:05.051Z,95622.59
2023-12-23T17:42:31.637Z,95644.13
2023-12-23T17:44:59.600Z,95625.16
2023-12-23T17:47:26.688Z,95638.75
2023-12-23T17:49:53.440Z,95640.84
2023-12-23T17:52:20.973Z,95638.38
2023-12-23T17:54:48.620Z,95653.69
2023-12-23T17:57:16.476Z,95651.66
2023-12-23T17:59:43.789Z,95638.09
2023-12-23T18:02:10.617Z,95651.13
2023-12-23T18:04:37.340Z,95641.53
2023-12-23T18:07:04.044Z,95649.69
2023-12-23T18:09:31.558Z,95656.41
2023-12-23T18:11:58.100Z,95652.03
2023-12-23T18:14:28.255Z,95649.97
2023-12-23T18:16:55.348Z,95649.88
2023-12-23T18:19:22.061Z,95646.16
2023-12-23T18:21:48.622Z,95650.59
2023-12-23T18:24:15.504Z,95650.97
2023-12-23T18:26:43.677Z,95659.88
2023-12-23T18:29:10.506Z,95675.41
2023-12-23T18:31:37.318Z,95666.50
2023-12-23T18:34:04.240Z,95651.03
2023-12-23T18:36:32.852Z,95674.38
2023-12-23T18:38:59.706Z,95660.75
2023-12-23T18:41:27.288Z,95670.03
2023-12-23T18:43:54.048Z,95669.00
2023-12-23T18:46:20.937Z,95685.09
2023-12-23T18:48:48.104Z,95670.53
2023-12-23T18:51:14.830Z,95674.38
2023-12-23T18:53:41.321Z,95679.06
2023-12-23T18:56:08.068Z,95660.03
2023-12-23T18:58:34.585Z,95682.50
2023-12-23T19:01:02.571Z,95651.22
2023-12-23T19:03:29.376Z,95673.25
2023-12-23T19:05:59.520Z,95672.63
2023-12-23T19:08:26.760Z,95680.09
2023-12-23T19:10:56.893Z,95696.34
2023-12-23T19:13:24.959Z,95653.63
2023-12-23T19:15:51.976Z,95696.47
2023-12-23T19:18:18.727Z,95682.47
2023-12-23T19:20:47.087Z,95669.44
2023-12-23T19:23:13.900Z,95695.13
2023-12-23T19:25:40.643Z,95697.94
2023-12-23T19:28:07.145Z,95691.81
2023-12-23T19:30:33.878Z,95711.81
2023-12-23T19:33:00.885Z,95688.94
2023-12-23T19:35:27.499Z,95684.66
2023-12-23T19:37:54.118Z,95688.88
2023-12-23T19:40:21.093Z,95700.25
2023-12-23T19:42:47.631Z,95684.97
2023-12-23T19:45:15.399Z,95687.75
2023-12-23T19:47:42.208Z,95699.19
2023-12-23T19:50:09.192Z,95684.81
2023-12-23T19:52:36.503Z,95700.44
2023-12-23T19:55:03.111Z,95690.44
2023-12-23T19:57:29.780Z,95705.09
2023-12-23T19:59:56.443Z,95683.09
2023-12-23T20:02:23.348Z,95682.41
2023-12-23T20:04:50.545Z,95676.09
2023-12-23T20:07:17.277Z,95694.72
2023-12-23T20:09:44.141Z,95663.66
2023-12-23T20:12:10.718Z,95688.06
2023-12-23T20:14:39.885Z,95665.97
2023-12-23T20:17:06.477Z,95679.19
2023-12-23T20:19:32.968Z,95689.03
2023-12-23T20:21:59.747Z,95687.56
2023-12-23T20:24:26.247Z,95700.09
2023-12-23T20:26:55.287Z,95702.13
2023-12-23T20:29:22.513Z,95706.06
2023-12-23T20:31:49.145Z,95691.63
2023-12-23T20:34:15.804Z,95679.97
2023-12-23T20:36:44.668Z,95704.19
2023-12-23T20:39:11.557Z,95694.25
2023-12-23T20:41:52.075Z,95683.72
2023-12-23T20:44:18.735Z,95684.88
2023-12-23T20:46:45.305Z,95698.34
2023-12-23T20:49:11.881Z,95696.53
2023-12-23T20:51:38.403Z,95716.72
2023-12-23T20:54:05.461Z,95714.09
2023-12-23T20:56:33.016Z,95706.06
2023-12-23T20:58:59.721Z,95698.03
2023-12-23T21:01:26.272Z,95712.53
2023-12-23T21:03:54.685Z,95715.97
2023-12-23T21:06:21.673Z,95713.50
2023-12-23T21:08:51.496Z,95727.03
2023-12-23T21:11:19.262Z,95739.28
2023-12-23T21:13:49.428Z,95741.22
2023-12-23T21:16:15.901Z,95738.00
2023-12-23T21:18:45.678Z,95719.28
2023-12-23T21:21:12.811Z,95714.50
2023-12-23T21:23:39.537Z,95723.94
2023-12-23T21:26:06.152Z,95687.75
2023-12-23T21:28:32.738Z,95711.75
2023-12-23T21:30:59.871Z,95708.41
2023-12-23T21:33:28.214Z,95719.41
2023-12-23T21:35:54.830Z,95700.00
2023-12-23T21:38:21.678Z,95712.63
2023-12-23T21:40:48.946Z,95724.63
2023-12-23T21:43:15.740Z,95725.00
2023-12-23T21:45:42.924Z,95736.94
2023-12-23T21:48:10.054Z,95716.28
2023-12-23T21:50:36.828Z,95735.09
2023-12-23T21:53:05.047Z,95737.44
2023-12-23T21:55:31.619Z,95738.28
2023-12-23T21:57:58.162Z,95742.38
2023-12-23T22:00:24.701Z,95727.28
2023-12-23T22:02:51.774Z,95729.75
2023-12-23T22:05:18.817Z,95713.66
2023-12-23T22:07:45.387Z,95677.69
2023-12-23T22:10:13.885Z,95712.41
2023-12-23T22:12:40.822Z,95721.38
2023-12-23T22:15:08.273Z,95719.03
2023-12-23T22:17:35.133Z,95707.50
2023-12-23T22:20:04.128Z,95722.03
2023-12-23T22:22:30.711Z,95723.34
2023-12-23T22:25:00.389Z,95728.47
2023-12-23T22:27:26.997Z,95705.09
2023-12-23T22:29:53.611Z,95721.16
2023-12-23T22:32:20.201Z,95721.59
2023-12-23T22:34:46.783Z,95723.09
2023-12-23T22:37:13.324Z,95712.03
2023-12-23T22:39:39.847Z,95730.47
2023-12-23T22:42:06.506Z,95702.44
2023-12-23T22:44:33.119Z,95723.59
2023-12-23T22:46:59.771Z,95737.84
2023-12-23T22:49:26.427Z,95733.88
2023-12-23T22:51:53.137Z,95731.22
2023-12-23T22:54:19.646Z,95732.41
2023-12-23T22:56:46.206Z,95737.69
2023-12-23T22:59:12.857Z,95705.13
2023-12-23T23:01:39.367Z,95724.56
2023-12-23T23:04:05.841Z,95737.81
2023-12-23T23:06:32.400Z,95751.06
2023-12-23T23:08:59.577Z,95728.97
2023-12-23T23:11:26.106Z,95747.31
2023-12-23T23:13:52.650Z,95745.75
2023-12-23T23:16:19.553Z,95734.28
2023-12-23T23:18:46.136Z,95729.75
2023-12-23T23:21:12.754Z,95743.09
2023-12-23T23:23:39.319Z,95745.81
2023-12-23T23:26:06.681Z,95746.81
2023-12-23T23:28:34.117Z,95761.72
2023-12-23T23:31:00.669Z,95753.25
2023-12-23T23:33:27.222Z,95747.00
2023-12-23T23:35:53.869Z,95750.31
2023-12-23T23:38:20.456Z,95755.56
2023-12-23T23:40:49.921Z,95763.63
2023-12-23T23:43:16.693Z,95774.19
2023-12-23T23:45:43.285Z,95764.59
2023-12-23T23:48:09.803Z,95763.81
2023-12-23T23:50:36.625Z,95764.53
2023-12-23T23:53:03.418Z,95769.28
2023-12-23T23:55:29.961Z,95757.13
2023-12-23T23:57:56.534Z,95781.66
